TimeEDT,TemperatureF,Dew PointF,Humidity,Sea Level PressureIn,VisibilityMPH,Wind Direction,Wind SpeedMPH,Gust SpeedMPH,PrecipitationIn,Events,Conditions,WindDirDegrees,DateUTC
12:53 AM,26.1,17.1,69,29.76,10.0,West,23.0,34.5,N/A,,Overcast,260,2013-03-19 04:53:00
1:53 AM,25.0,16.0,69,29.77,10.0,West,24.2,32.2,N/A,,Overcast,260,2013-03-19 05:53:00
2:53 AM,24.1,15.1,69,29.78,9.0,West,21.9,33.4,0.00,,Overcast,260,2013-03-19 06:53:00
3:53 AM,24.1,15.1,69,29.78,10.0,West,21.9,29.9,0.00,Snow,Light Snow,260,2013-03-19 07:53:00
4:53 AM,21.9,12.9,68,29.78,10.0,West,23.0,31.1,0.00,,Overcast,270,2013-03-19 08:53:00
5:53 AM,21.9,14.0,72,29.80,8.0,WSW,24.2,33.4,0.00,Snow,Light Snow,250,2013-03-19 09:53:00
6:53 AM,21.9,12.9,68,29.81,7.0,West,25.3,34.5,0.00,Snow,Light Snow,260,2013-03-19 10:53:00
7:53 AM,21.0,12.9,71,29.83,7.0,West,24.2,33.4,0.00,Snow,Light Snow,260,2013-03-19 11:53:00
8:53 AM,21.0,14.0,74,29.83,3.0,West,26.5,32.2,0.00,Snow,Light Snow,270,2013-03-19 12:53:00
9:53 AM,21.0,14.0,74,29.84,5.0,West,26.5,34.5,0.00,Snow,Light Snow,260,2013-03-19 13:53:00
10:53 AM,21.9,14.0,72,29.86,7.0,West,29.9,35.7,0.00,Snow,Light Snow,260,2013-03-19 14:53:00
11:53 AM,23.0,14.0,68,29.88,9.0,West,28.8,35.7,0.00,Snow,Light Snow,260,2013-03-19 15:53:00
12:53 PM,25.0,15.1,66,29.91,10.0,West,24.2,35.7,0.00,,Overcast,270,2013-03-19 16:53:00
1:53 PM,28.0,15.1,58,29.93,10.0,West,28.8,40.3,N/A,,Overcast,260,2013-03-19 17:53:00
2:32 PM,28.4,15.8,59,29.91,10.0,West,25.3,40.3,N/A,,Overcast,270,2013-03-19 18:32:00
2:53 PM,28.9,15.1,56,29.94,10.0,West,31.1,40.3,N/A,,Overcast,270,2013-03-19 18:53:00
3:53 PM,30.9,15.1,52,29.95,10.0,West,25.3,39.1,N/A,,Partly Cloudy,270,2013-03-19 19:53:00
4:53 PM,32.0,16.0,52,29.97,10.0,West,25.3,33.4,N/A,,Clear,270,2013-03-19 20:53:00
5:53 PM,32.0,15.1,50,29.99,10.0,West,24.2,32.2,N/A,,Clear,270,2013-03-19 21:53:00
6:53 PM,32.0,16.0,52,29.99,10.0,West,24.2,35.7,N/A,,Clear,260,2013-03-19 22:53:00
7:53 PM,30.9,16.0,54,30.01,10.0,West,21.9,31.1,N/A,,Clear,270,2013-03-19 23:53:00
8:53 PM,30.9,16.0,54,30.01,10.0,West,26.5,33.4,N/A,,Clear,270,2013-03-20 00:53:00
9:53 PM,30.9,16.0,54,30.03,10.0,West,25.3,38.0,N/A,,Scattered Clouds,270,2013-03-20 01:53:00
10:53 PM,30.0,16.0,56,30.05,10.0,West,23.0,33.4,N/A,,Clear,270,2013-03-20 02:53:00
11:53 PM,28.9,15.1,56,30.05,10.0,West,19.6,25.3,N/A,,Partly Cloudy,270,2013-03-20 03:53:00